Bol'Shaja Murta, Russia
Current Conditions -  °F | °C
As of 11:00 AM on Tuesday 23 Dec 2014 (Local Time) from UNKL Reporting Station
Overcast Overcast  
Wind Chill: 32°   Ceiling: 8300
Heat Index: 32°   Visibility: 6mi
Dew Point: 21°   Wind: 0mph
Humidity: 64%   Direction: NA
Pressure: 30.3"   Gusts: NA
Location:  56.9°N, 93.13°E
Report Text: UNKL 230400Z 00000MPS 9000 SCT026CB OVC083 00/M06 Q1026 NOSIGRMK QFE744 29////60
Loading
Personal Weather Stations






























Interactive Weather Map New forecast layout! Learn more

10-Day Weather Forecast

Advertisements
Track Severe Weather on mobile